createdAt,value
2022-09-01T00:00:54.849Z,14.52
2022-09-01T00:06:01.030Z,14.46
2022-09-01T00:11:09.657Z,14.37
2022-09-01T00:16:20.951Z,14.33
2022-09-01T00:21:37.269Z,14.32
2022-09-01T00:26:48.030Z,14.29
2022-09-01T00:32:03.880Z,14.25
2022-09-01T00:37:16.764Z,14.23
2022-09-01T00:42:25.226Z,14.18
2022-09-01T00:47:32.887Z,14.16
2022-09-01T00:52:49.764Z,14.15
2022-09-01T00:57:58.060Z,14.16
2022-09-01T01:03:08.880Z,14.09
2022-09-01T01:08:21.917Z,13.98
2022-09-01T01:13:32.596Z,13.92
2022-09-01T01:18:41.640Z,13.93
2022-09-01T01:23:59.598Z,14.01
2022-09-01T01:29:09.949Z,14.06
2022-09-01T01:34:24.468Z,14.07
2022-09-01T01:39:41.357Z,13.86
2022-09-01T01:44:50.856Z,13.61
2022-09-01T01:50:09.788Z,13.43
2022-09-01T01:55:19.702Z,13.30
2022-09-01T02:00:47.781Z,13.29
2022-09-01T02:05:57.103Z,13.26
2022-09-01T02:11:06.616Z,13.20
2022-09-01T02:16:21.579Z,13.09
2022-09-01T02:21:32.460Z,13.02
2022-09-01T02:26:51.992Z,13.03
2022-09-01T02:32:12.088Z,13.01
2022-09-01T02:42:44.549Z,12.97
2022-09-01T02:48:05.090Z,12.96
2022-09-01T02:58:49.651Z,12.97
2022-09-01T03:03:59.626Z,12.95
2022-09-01T03:09:11.217Z,12.94
2022-09-01T03:14:19.453Z,12.92
2022-09-01T03:19:27.634Z,12.91
2022-09-01T03:24:35.293Z,12.84
2022-09-01T03:29:44.138Z,12.74
2022-09-01T03:34:55.026Z,12.64
2022-09-01T03:40:07.538Z,12.59
2022-09-01T03:45:21.741Z,12.62
2022-09-01T03:50:28.707Z,12.77
2022-09-01T03:55:38.509Z,12.85
2022-09-01T04:00:48.919Z,12.95
2022-09-01T04:06:04.137Z,12.92
2022-09-01T04:11:20.571Z,13.16
2022-09-01T04:16:48.710Z,13.27
2022-09-01T04:22:16.754Z,13.08
2022-09-01T04:27:27.726Z,12.91
2022-09-01T04:32:39.646Z,12.84
2022-09-01T04:38:02.362Z,12.84
2022-09-01T04:43:22.072Z,12.74
2022-09-01T04:48:32.742Z,12.63
2022-09-01T04:53:43.421Z,12.52
2022-09-01T04:58:56.204Z,12.47
2022-09-01T05:04:08.159Z,12.44
2022-09-01T05:09:19.296Z,12.45
2022-09-01T05:14:30.246Z,12.45
2022-09-01T05:19:41.231Z,12.45
2022-09-01T05:24:54.986Z,12.41
2022-09-01T05:30:09.510Z,12.37
2022-09-01T05:35:20.874Z,12.33
2022-09-01T05:40:30.898Z,12.39
2022-09-01T05:46:05.231Z,12.56
2022-09-01T05:51:42.312Z,12.76
2022-09-01T05:56:48.409Z,12.99
2022-09-01T06:01:57.276Z,13.24
2022-09-01T06:07:16.885Z,13.52
2022-09-01T06:12:33.296Z,13.81
2022-09-01T06:17:46.316Z,14.04
2022-09-01T06:23:00.966Z,14.24
2022-09-01T06:28:31.702Z,14.42
2022-09-01T06:33:43.843Z,14.56
2022-09-01T06:39:00.881Z,14.70
2022-09-01T06:44:14.843Z,14.79
2022-09-01T06:49:32.829Z,14.89
2022-09-01T06:54:51.694Z,14.96
2022-09-01T07:00:19.064Z,15.01
2022-09-01T07:16:32.882Z,15.13
2022-09-01T07:21:42.345Z,15.25
2022-09-01T07:27:11.035Z,15.41
2022-09-01T07:43:22.577Z,15.72
2022-09-01T07:54:02.630Z,15.98
2022-09-01T07:59:14.947Z,16.13
2022-09-01T08:04:24.238Z,16.25
2022-09-01T08:09:37.757Z,16.38
2022-09-01T08:14:47.224Z,16.56
2022-09-01T08:19:55.356Z,16.80
2022-09-01T08:25:03.696Z,17.02
2022-09-01T08:30:14.676Z,17.01
2022-09-01T08:35:23.095Z,17.12
2022-09-01T08:40:30.513Z,17.23
2022-09-01T08:45:47.500Z,17.33
2022-09-01T08:51:00.731Z,17.39
2022-09-01T08:56:11.047Z,17.45
2022-09-01T09:01:27.871Z,17.60
2022-09-01T09:06:42.661Z,17.65
2022-09-01T09:12:16.552Z,17.58
2022-09-01T09:17:30.879Z,17.50
2022-09-01T09:22:39.240Z,17.54
2022-09-01T09:27:48.073Z,17.54
2022-09-01T09:33:46.587Z,17.72
2022-09-01T09:38:33.252Z,17.91
2022-09-01T09:43:47.511Z,17.98
2022-09-01T09:49:11.774Z,18.02
2022-09-01T09:54:24.296Z,18.08
2022-09-01T09:59:57.191Z,18.17
2022-09-01T10:05:05.547Z,18.28
2022-09-01T10:10:30.685Z,18.40
2022-09-01T10:15:40.646Z,18.52
2022-09-01T10:20:53.683Z,18.55
2022-09-01T10:26:09.579Z,18.53
2022-09-01T10:31:18.640Z,18.54
2022-09-01T10:36:26.123Z,18.52
2022-09-01T10:41:59.591Z,18.58
2022-09-01T10:47:26.016Z,18.55
2022-09-01T10:52:58.491Z,18.36
2022-09-01T11:04:01.440Z,18.35
2022-09-01T11:09:22.813Z,18.42
2022-09-01T11:14:36.150Z,18.50
2022-09-01T11:19:46.087Z,18.61
2022-09-01T11:25:40.864Z,18.67
2022-09-01T11:30:55.494Z,18.72
2022-09-01T11:36:08.296Z,18.69
2022-09-01T11:41:26.149Z,18.66
2022-09-01T11:46:44.364Z,18.74
2022-09-01T11:51:52.013Z,18.84
2022-09-01T11:56:59.831Z,18.92
2022-09-01T12:02:09.187Z,18.99
2022-09-01T12:07:37.550Z,18.89
2022-09-01T12:12:46.452Z,18.75
2022-09-01T12:17:55.303Z,18.79
2022-09-01T12:23:04.019Z,18.96
2022-09-01T12:28:12.589Z,19.12
2022-09-01T12:33:25.102Z,19.17
2022-09-01T12:38:34.142Z,19.04
2022-09-01T12:43:43.362Z,18.93
2022-09-01T12:48:53.623Z,19.00
2022-09-01T12:54:04.711Z,19.16
2022-09-01T12:59:20.985Z,19.29
2022-09-01T13:04:39.945Z,19.48
2022-09-01T13:09:47.498Z,19.39
2022-09-01T13:14:54.547Z,19.27
2022-09-01T13:20:03.852Z,19.18
2022-09-01T13:25:13.559Z,19.10
2022-09-01T13:30:28.683Z,19.05
2022-09-01T13:35:36.213Z,19.11
2022-09-01T13:40:46.462Z,18.96
2022-09-01T13:45:56.631Z,18.86
2022-09-01T13:51:15.623Z,18.80
2022-09-01T13:56:25.133Z,18.91
2022-09-01T14:01:43.340Z,19.05
2022-09-01T14:07:00.093Z,19.09
2022-09-01T14:12:33.721Z,18.97
2022-09-01T14:17:43.605Z,19.01
2022-09-01T14:22:52.651Z,19.11
2022-09-01T14:28:04.595Z,19.26
2022-09-01T14:33:16.244Z,19.32
2022-09-01T14:38:25.086Z,19.31
2022-09-01T14:43:38.432Z,19.35
2022-09-01T14:48:48.992Z,19.40
2022-09-01T14:53:57.448Z,19.45
2022-09-01T14:59:09.142Z,19.45
2022-09-01T15:04:17.220Z,19.45
2022-09-01T15:09:25.510Z,19.43
2022-09-01T15:14:38.236Z,19.41
2022-09-01T15:20:37.520Z,19.28
2022-09-01T15:25:48.763Z,19.00
2022-09-01T15:31:00.351Z,18.80
2022-09-01T15:36:16.321Z,18.62
2022-09-01T15:41:32.053Z,18.48
2022-09-01T15:46:54.626Z,18.36
2022-09-01T15:52:08.505Z,18.32
2022-09-01T15:57:37.067Z,18.37
2022-09-01T16:02:49.127Z,18.44
2022-09-01T16:08:15.218Z,18.51
2022-09-01T16:13:40.470Z,18.54
2022-09-01T16:18:56.782Z,18.48
2022-09-01T16:24:13.572Z,18.39
2022-09-01T16:29:45.108Z,18.33
2022-09-01T16:34:57.772Z,18.25
2022-09-01T16:40:19.179Z,18.18
2022-09-01T16:45:43.031Z,18.15
2022-09-01T16:50:58.979Z,18.12
2022-09-01T16:56:12.459Z,18.09
2022-09-01T17:01:30.654Z,18.04
2022-09-01T17:06:56.672Z,17.97
2022-09-01T17:12:23.604Z,17.91
2022-09-01T17:17:40.576Z,17.83
2022-09-01T17:22:53.779Z,17.76
2022-09-01T17:28:04.967Z,17.68
2022-09-01T17:33:23.643Z,17.53
2022-09-01T17:38:40.020Z,17.39
2022-09-01T17:44:32.419Z,17.26
2022-09-01T17:50:26.608Z,17.14
2022-09-01T17:55:51.067Z,17.04
2022-09-01T18:01:17.643Z,17.03
2022-09-01T18:06:52.952Z,17.20
2022-09-01T18:12:10.256Z,17.23
2022-09-01T18:17:30.009Z,17.11
2022-09-01T18:23:01.387Z,16.95
2022-09-01T18:28:22.272Z,16.78
2022-09-01T18:34:07.087Z,16.62
2022-09-01T18:39:31.056Z,16.49
2022-09-01T18:45:09.048Z,16.39
2022-09-01T18:51:13.640Z,16.25
2022-09-01T18:56:57.477Z,16.17
2022-09-01T19:02:34.101Z,16.32
2022-09-01T19:07:56.039Z,16.32
2022-09-01T19:13:15.626Z,16.14
2022-09-01T19:25:14.667Z,15.84
2022-09-01T19:30:56.721Z,15.64
2022-09-01T19:36:26.997Z,15.46
2022-09-01T19:42:25.630Z,15.35
2022-09-01T19:48:01.575Z,15.27
2022-09-01T19:54:44.570Z,15.25
2022-09-01T20:00:27.358Z,15.22
2022-09-01T20:06:22.779Z,15.15
2022-09-01T20:31:37.818Z,14.78
2022-09-01T20:37:42.260Z,14.77
2022-09-01T20:43:52.600Z,14.80
2022-09-01T20:49:44.218Z,14.67
2022-09-01T20:55:21.429Z,14.58
2022-09-01T21:01:49.011Z,14.49
2022-09-01T21:07:31.060Z,14.35
2022-09-01T21:32:34.170Z,13.90
2022-09-01T21:38:35.209Z,14.00
2022-09-01T21:44:28.896Z,13.87
2022-09-01T21:56:49.673Z,13.61
2022-09-01T22:02:34.546Z,13.52
2022-09-01T22:07:47.898Z,13.46
2022-09-01T22:13:04.022Z,13.39
2022-09-01T22:18:16.348Z,13.32
2022-09-01T22:23:27.335Z,13.28
2022-09-01T22:28:44.665Z,13.23
2022-09-01T22:33:58.019Z,13.20
2022-09-01T22:39:12.349Z,13.18
2022-09-01T22:44:23.480Z,13.14
2022-09-01T22:49:33.641Z,13.11
2022-09-01T22:54:45.831Z,13.10
2022-09-01T23:00:22.476Z,13.10
2022-09-01T23:05:51.431Z,13.12
2022-09-01T23:11:02.270Z,13.15
2022-09-01T23:16:22.446Z,13.17
2022-09-01T23:21:33.695Z,13.16
2022-09-01T23:26:45.009Z,13.11
2022-09-01T23:32:06.865Z,13.08
2022-09-01T23:37:15.531Z,13.04
2022-09-01T23:42:25.916Z,13.01
2022-09-01T23:47:35.849Z,12.89
2022-09-01T23:52:44.256Z,12.78
2022-09-01T23:57:51.974Z,12.70
